CNK1 CYYT-CYYC
Flight info
| Callsign | CNK1 |
|---|---|
| Flight time | N/A |
| Altitude | 36000 |
| Route | YQX DCT 51N060W DCT SPOTE DCT 53N070W DCT SOCAN DCT VIRSO DCT 54N090W 53N100W DCT ILADA BIRKO6 |
| Aircraft | GLF6/M-SFGHIRWXY/S |
Departure
| Time | 2026-05-05 18:54 |
|---|---|
| Airport | St. John's International Airport (CYYT) |
Arrival
| Time | N/A |
|---|---|
| Airport | Calgary International Airport (CYYC) |
| Time | Latitude | Longitude | Altitude | Speed | Heading |
|---|---|---|---|---|---|
| 2026-05-05 18:35 | 47.61149 | -52.74079 | 439 ft | 0 kts | 266° |
| 2026-05-05 18:45 | 47.61148 | -52.74079 | 439 ft | 0 kts | 266° |
| 2026-05-05 18:45 | 47.61149 | -52.74079 | 439 ft | 0 kts | 266° |
| 2026-05-05 18:45 | 47.61149 | -52.74070 | 438 ft | 2 kts | 266° |
| 2026-05-05 18:45 | 47.61150 | -52.74048 | 438 ft | 2 kts | 266° |
| 2026-05-05 18:46 | 47.61150 | -52.74026 | 437 ft | 2 kts | 266° |
| 2026-05-05 18:46 | 47.61151 | -52.74004 | 436 ft | 2 kts | 266° |
| 2026-05-05 18:46 | 47.61152 | -52.73982 | 436 ft | 1 kts | 266° |
| 2026-05-05 18:46 | 47.61150 | -52.73965 | 435 ft | 1 kts | 318° |
| 2026-05-05 18:47 | 47.61142 | -52.73959 | 435 ft | 1 kts | 356° |
| 2026-05-05 18:47 | 47.61140 | -52.73959 | 435 ft | 0 kts | 355° |
| 2026-05-05 18:48 | 47.61142 | -52.73959 | 435 ft | 1 kts | 353° |
| 2026-05-05 18:48 | 47.61173 | -52.73964 | 435 ft | 6 kts | 354° |
| 2026-05-05 18:49 | 47.61232 | -52.73972 | 433 ft | 9 kts | 355° |
| 2026-05-05 18:49 | 47.61269 | -52.73915 | 432 ft | 11 kts | 100° |
| 2026-05-05 18:49 | 47.61305 | -52.73828 | 429 ft | 14 kts | 355° |
| 2026-05-05 18:49 | 47.61415 | -52.73841 | 427 ft | 17 kts | 356° |
| 2026-05-05 18:50 | 47.61539 | -52.73855 | 427 ft | 18 kts | 353° |
| 2026-05-05 18:50 | 47.61664 | -52.73863 | 427 ft | 18 kts | 355° |
| 2026-05-05 18:50 | 47.61789 | -52.73877 | 426 ft | 17 kts | 356° |
| 2026-05-05 18:50 | 47.61899 | -52.73891 | 425 ft | 14 kts | 354° |
| 2026-05-05 18:51 | 47.61990 | -52.73901 | 424 ft | 12 kts | 358° |
| 2026-05-05 18:51 | 47.62078 | -52.73904 | 422 ft | 13 kts | 357° |
| 2026-05-05 18:51 | 47.62170 | -52.73916 | 421 ft | 13 kts | 353° |
| 2026-05-05 18:51 | 47.62268 | -52.73925 | 419 ft | 14 kts | 357° |
| 2026-05-05 18:52 | 47.62379 | -52.73935 | 418 ft | 15 kts | 356° |
| 2026-05-05 18:52 | 47.62471 | -52.73942 | 417 ft | 14 kts | 357° |
| 2026-05-05 18:52 | 47.62547 | -52.73859 | 415 ft | 15 kts | 58° |
| 2026-05-05 18:52 | 47.62528 | -52.73744 | 412 ft | 12 kts | 208° |
| 2026-05-05 18:53 | 47.62521 | -52.73839 | 415 ft | 6 kts | 264° |
| 2026-05-05 18:53 | 47.62518 | -52.73906 | 416 ft | 18 kts | 266° |
| 2026-05-05 18:53 | 47.62495 | -52.74395 | 429 ft | 74 kts | 265° |
| 2026-05-05 18:53 | 47.62450 | -52.75391 | 530 ft | 112 kts | 265° |
| 2026-05-05 18:54 | 47.62433 | -52.76471 | 1066 ft | 108 kts | 265° |
| 2026-05-05 18:54 | 47.62405 | -52.77610 | 1656 ft | 110 kts | 265° |
| 2026-05-05 18:54 | 47.62395 | -52.78688 | 2131 ft | 123 kts | 267° |
| 2026-05-05 18:54 | 47.62388 | -52.80245 | 2134 ft | 177 kts | 268° |
| 2026-05-05 18:55 | 47.62361 | -52.82343 | 2340 ft | 223 kts | 267° |
| 2026-05-05 18:55 | 47.62326 | -52.84544 | 3584 ft | 219 kts | 268° |
| 2026-05-05 18:55 | 47.62283 | -52.86801 | 4616 ft | 221 kts | 273° |
| 2026-05-05 18:55 | 47.62919 | -52.88881 | 5558 ft | 240 kts | 309° |
| 2026-05-05 18:56 | 47.64136 | -52.90459 | 6787 ft | 237 kts | 313° |
| 2026-05-05 18:56 | 47.65373 | -52.92034 | 7763 ft | 238 kts | 313° |
| 2026-05-05 18:56 | 47.66631 | -52.93627 | 8749 ft | 243 kts | 313° |
| 2026-05-05 18:56 | 47.67914 | -52.95246 | 9803 ft | 249 kts | 314° |
| 2026-05-05 18:57 | 47.69271 | -52.96961 | 10394 ft | 269 kts | 314° |
| 2026-05-05 18:57 | 47.70805 | -52.98901 | 10366 ft | 308 kts | 315° |
| 2026-05-05 18:57 | 47.72458 | -53.00972 | 11293 ft | 314 kts | 315° |
| 2026-05-05 18:57 | 47.74104 | -53.03037 | 12426 ft | 316 kts | 315° |
| 2026-05-05 18:58 | 47.75780 | -53.05147 | 13357 ft | 322 kts | 315° |
| 2026-05-05 18:58 | 47.77484 | -53.07295 | 14318 ft | 326 kts | 316° |
| 2026-05-05 18:58 | 47.79199 | -53.09457 | 15372 ft | 328 kts | 316° |
| 2026-05-05 18:58 | 47.80935 | -53.11647 | 16262 ft | 334 kts | 316° |
| 2026-05-05 18:59 | 47.82695 | -53.13873 | 17196 ft | 337 kts | 316° |
| 2026-05-05 18:59 | 47.84477 | -53.16126 | 18133 ft | 341 kts | 316° |
| 2026-05-05 18:59 | 47.86277 | -53.18405 | 19059 ft | 345 kts | 316° |
| 2026-05-05 18:59 | 47.88133 | -53.20759 | 19905 ft | 352 kts | 316° |
| 2026-05-05 19:00 | 47.89993 | -53.23117 | 20801 ft | 356 kts | 316° |
| 2026-05-05 19:00 | 47.91870 | -53.25502 | 21661 ft | 361 kts | 316° |
| 2026-05-05 19:00 | 47.93787 | -53.27938 | 22401 ft | 368 kts | 316° |
| 2026-05-05 19:00 | 47.95728 | -53.30409 | 23281 ft | 371 kts | 316° |
| 2026-05-05 19:01 | 47.97696 | -53.32916 | 24054 ft | 377 kts | 316° |
| 2026-05-05 19:01 | 47.99682 | -53.35446 | 24971 ft | 378 kts | 316° |
| 2026-05-05 19:01 | 48.01679 | -53.37998 | 25780 ft | 382 kts | 316° |
| 2026-05-05 19:01 | 48.03698 | -53.40576 | 26588 ft | 386 kts | 316° |
| 2026-05-05 19:02 | 48.05736 | -53.43185 | 27271 ft | 391 kts | 317° |
| 2026-05-05 19:02 | 48.07799 | -53.45827 | 28033 ft | 394 kts | 317° |
| 2026-05-05 19:02 | 48.09876 | -53.48490 | 28756 ft | 397 kts | 317° |
| 2026-05-05 19:02 | 48.11981 | -53.51191 | 29481 ft | 400 kts | 317° |
| 2026-05-05 19:03 | 48.14096 | -53.53907 | 30080 ft | 405 kts | 317° |
| 2026-05-05 19:03 | 48.16240 | -53.56665 | 30743 ft | 408 kts | 317° |
| 2026-05-05 19:03 | 48.18424 | -53.59478 | 31309 ft | 411 kts | 317° |
| 2026-05-05 19:03 | 48.20578 | -53.62254 | 32083 ft | 408 kts | 317° |
| 2026-05-05 19:04 | 48.22720 | -53.65018 | 32752 ft | 406 kts | 316° |
| 2026-05-05 19:04 | 48.24855 | -53.67776 | 33296 ft | 406 kts | 316° |
| 2026-05-05 19:04 | 48.27016 | -53.70573 | 33777 ft | 406 kts | 316° |
| 2026-05-05 19:04 | 48.29161 | -53.73351 | 34271 ft | 405 kts | 316° |
| 2026-05-05 19:05 | 48.31279 | -53.76096 | 34683 ft | 406 kts | 316° |
| 2026-05-05 19:05 | 48.33440 | -53.78904 | 34950 ft | 410 kts | 316° |
| 2026-05-05 19:05 | 48.35606 | -53.81719 | 35305 ft | 411 kts | 316° |
| 2026-05-05 19:05 | 48.37812 | -53.84588 | 35687 ft | 412 kts | 316° |
| 2026-05-05 19:06 | 48.39975 | -53.87410 | 35894 ft | 419 kts | 316° |
| 2026-05-05 19:06 | 48.42203 | -53.90316 | 35924 ft | 431 kts | 316° |
| 2026-05-05 19:06 | 48.44501 | -53.93320 | 35926 ft | 444 kts | 316° |
| 2026-05-05 19:06 | 48.46855 | -53.96397 | 35919 ft | 455 kts | 316° |
| 2026-05-05 19:07 | 48.49265 | -53.99552 | 35915 ft | 466 kts | 316° |
| 2026-05-05 19:07 | 48.51725 | -54.02776 | 35915 ft | 473 kts | 316° |
| 2026-05-05 19:07 | 48.56718 | -54.09334 | 35897 ft | 478 kts | 316° |
| 2026-05-05 19:08 | 48.61715 | -54.15916 | 35897 ft | 477 kts | 316° |
| 2026-05-05 19:08 | 48.66731 | -54.22543 | 35892 ft | 476 kts | 316° |
| 2026-05-05 19:09 | 48.71716 | -54.29145 | 35893 ft | 476 kts | 316° |
| 2026-05-05 19:09 | 48.76701 | -54.35766 | 35866 ft | 476 kts | 316° |
| 2026-05-05 19:10 | 48.81629 | -54.42330 | 35853 ft | 476 kts | 316° |
| 2026-05-05 19:10 | 48.86614 | -54.48985 | 35852 ft | 475 kts | 316° |
| 2026-05-05 19:11 | 48.91112 | -54.56220 | 35870 ft | 467 kts | 302° |
| 2026-05-05 19:11 | 48.94637 | -54.64471 | 35843 ft | 469 kts | 302° |
| 2026-05-05 19:12 | 48.98077 | -54.72593 | 35837 ft | 468 kts | 301° |
| 2026-05-05 19:12 | 49.01591 | -54.80925 | 35847 ft | 468 kts | 301° |
| 2026-05-05 19:13 | 49.05091 | -54.89244 | 35843 ft | 467 kts | 301° |
| 2026-05-05 19:13 | 49.08591 | -54.97591 | 35854 ft | 468 kts | 301° |
| 2026-05-05 19:14 | 49.12083 | -55.05946 | 35846 ft | 467 kts | 301° |
| 2026-05-05 19:14 | 49.15563 | -55.14298 | 35841 ft | 467 kts | 301° |
| 2026-05-05 19:15 | 49.19040 | -55.22666 | 35823 ft | 467 kts | 301° |
| 2026-05-05 19:15 | 49.22505 | -55.31033 | 35827 ft | 466 kts | 301° |
| 2026-05-05 19:16 | 49.25955 | -55.39393 | 35835 ft | 466 kts | 301° |
| 2026-05-05 19:16 | 49.29401 | -55.47769 | 35833 ft | 466 kts | 301° |
| 2026-05-05 19:17 | 49.32843 | -55.56159 | 35839 ft | 465 kts | 301° |
| 2026-05-05 19:17 | 49.36286 | -55.64583 | 35836 ft | 465 kts | 302° |
| 2026-05-05 19:18 | 49.39710 | -55.72982 | 35830 ft | 465 kts | 301° |
| 2026-05-05 19:18 | 49.43127 | -55.81392 | 35841 ft | 465 kts | 301° |
| 2026-05-05 19:19 | 49.46545 | -55.89834 | 35829 ft | 465 kts | 301° |
| 2026-05-05 19:19 | 49.49942 | -55.98249 | 35830 ft | 465 kts | 301° |
| 2026-05-05 19:20 | 49.53341 | -56.06691 | 35807 ft | 464 kts | 301° |
| 2026-05-05 19:20 | 49.56716 | -56.15109 | 35835 ft | 464 kts | 301° |
| 2026-05-05 19:21 | 49.60112 | -56.23600 | 35788 ft | 464 kts | 301° |
| 2026-05-05 19:21 | 49.63481 | -56.32050 | 35790 ft | 464 kts | 301° |
| 2026-05-05 19:22 | 49.66839 | -56.40505 | 35793 ft | 463 kts | 301° |
| 2026-05-05 19:22 | 49.70194 | -56.48978 | 35652 ft | 462 kts | 301° |
| 2026-05-05 19:23 | 49.73529 | -56.57428 | 35787 ft | 465 kts | 301° |
| 2026-05-05 19:23 | 49.76904 | -56.66004 | 35784 ft | 466 kts | 301° |
| 2026-05-05 19:24 | 49.80267 | -56.74577 | 35764 ft | 468 kts | 300° |
| 2026-05-05 19:24 | 49.83621 | -56.83155 | 35775 ft | 467 kts | 300° |
| 2026-05-05 19:25 | 49.86966 | -56.91743 | 35778 ft | 467 kts | 300° |
| 2026-05-05 19:25 | 49.90305 | -57.00343 | 35766 ft | 466 kts | 300° |
| 2026-05-05 19:26 | 49.93642 | -57.08966 | 35744 ft | 466 kts | 301° |
| 2026-05-05 19:26 | 49.96955 | -57.17550 | 35727 ft | 465 kts | 301° |
| 2026-05-05 19:27 | 50.00279 | -57.26191 | 35689 ft | 466 kts | 300° |
| 2026-05-05 19:27 | 50.03581 | -57.34811 | 35743 ft | 466 kts | 300° |
| 2026-05-05 19:28 | 50.05236 | -57.39137 | 35979 ft | 465 kts | 300° |
| 2026-05-05 19:28 | 50.06880 | -57.43452 | 35761 ft | 466 kts | 301° |
| 2026-05-05 19:28 | 50.10164 | -57.52070 | 35760 ft | 463 kts | 300° |
| 2026-05-05 19:29 | 50.13442 | -57.60708 | 35774 ft | 464 kts | 300° |
| 2026-05-05 19:29 | 50.16719 | -57.69379 | 35771 ft | 464 kts | 299° |
| 2026-05-05 19:30 | 50.19997 | -57.78071 | 35786 ft | 464 kts | 299° |
| 2026-05-05 19:30 | 50.23249 | -57.86729 | 35791 ft | 465 kts | 299° |
| 2026-05-05 19:31 | 50.26506 | -57.95430 | 35801 ft | 465 kts | 299° |
| 2026-05-05 19:31 | 50.29752 | -58.04122 | 35786 ft | 465 kts | 299° |
| 2026-05-05 19:32 | 50.32997 | -58.12857 | 35795 ft | 465 kts | 299° |
| 2026-05-05 19:32 | 50.36229 | -58.21571 | 35787 ft | 466 kts | 299° |
| 2026-05-05 19:33 | 50.39456 | -58.30307 | 35776 ft | 465 kts | 299° |
| 2026-05-05 19:33 | 50.42677 | -58.39059 | 35761 ft | 465 kts | 299° |
| 2026-05-05 19:34 | 50.45886 | -58.47804 | 35749 ft | 464 kts | 299° |
| 2026-05-05 19:35 | 50.50675 | -58.60913 | 35755 ft | 463 kts | 299° |
| 2026-05-05 19:35 | 50.53866 | -58.69683 | 35766 ft | 463 kts | 298° |
| 2026-05-05 19:36 | 50.57047 | -58.78462 | 35763 ft | 463 kts | 298° |
| 2026-05-05 19:36 | 50.60218 | -58.87235 | 35754 ft | 462 kts | 298° |
| 2026-05-05 19:37 | 50.63377 | -58.96006 | 35739 ft | 462 kts | 298° |
| 2026-05-05 19:37 | 50.66526 | -59.04785 | 35724 ft | 462 kts | 298° |
| 2026-05-05 19:38 | 50.69674 | -59.13586 | 35722 ft | 462 kts | 298° |
| 2026-05-05 19:38 | 50.72812 | -59.22390 | 35728 ft | 462 kts | 298° |
| 2026-05-05 19:39 | 50.75939 | -59.31195 | 35706 ft | 462 kts | 298° |
| 2026-05-05 19:39 | 50.79064 | -59.40027 | 35707 ft | 461 kts | 298° |
| 2026-05-05 19:40 | 50.82183 | -59.48870 | 35700 ft | 461 kts | 298° |
| 2026-05-05 19:40 | 50.85286 | -59.57698 | 35692 ft | 461 kts | 298° |
| 2026-05-05 19:41 | 50.88380 | -59.66536 | 35681 ft | 460 kts | 297° |
| 2026-05-05 19:41 | 50.89920 | -59.70945 | 35543 ft | 457 kts | 297° |
| 2026-05-05 19:41 | 50.91456 | -59.75344 | 35648 ft | 461 kts | 297° |
| 2026-05-05 19:42 | 50.94574 | -59.84313 | 35678 ft | 465 kts | 297° |
| 2026-05-05 19:42 | 50.97687 | -59.93295 | 35539 ft | 467 kts | 297° |
| 2026-05-05 19:42 | 50.99221 | -59.97734 | 35655 ft | 461 kts | 297° |
| 2026-05-05 19:43 | 51.00565 | -60.02333 | 35650 ft | 462 kts | 291° |
| 2026-05-05 19:43 | 51.02936 | -60.11901 | 35669 ft | 464 kts | 290° |
| 2026-05-05 19:44 | 51.05263 | -60.21376 | 35663 ft | 465 kts | 290° |
| 2026-05-05 19:44 | 51.07599 | -60.30929 | 35673 ft | 465 kts | 290° |
| 2026-05-05 19:45 | 51.09925 | -60.40497 | 35667 ft | 465 kts | 290° |
| 2026-05-05 19:45 | 51.12247 | -60.50079 | 35662 ft | 464 kts | 291° |
| 2026-05-05 19:46 | 51.14549 | -60.59630 | 35654 ft | 463 kts | 290° |
| 2026-05-05 19:46 | 51.16838 | -60.69159 | 35672 ft | 464 kts | 289° |
| 2026-05-05 19:47 | 51.19140 | -60.78786 | 35639 ft | 462 kts | 289° |
| 2026-05-05 19:47 | 51.21423 | -60.88383 | 35654 ft | 464 kts | 289° |
| 2026-05-05 19:48 | 51.23696 | -60.97975 | 35662 ft | 462 kts | 289° |
| 2026-05-05 19:48 | 51.25949 | -61.07521 | 35644 ft | 462 kts | 289° |
| 2026-05-05 19:49 | 51.28207 | -61.17140 | 35651 ft | 463 kts | 289° |
| 2026-05-05 19:49 | 51.30460 | -61.26772 | 35642 ft | 464 kts | 289° |
| 2026-05-05 19:50 | 51.32703 | -61.36417 | 35629 ft | 464 kts | 289° |
| 2026-05-05 19:50 | 51.34922 | -61.45992 | 35654 ft | 463 kts | 289° |
| 2026-05-05 19:51 | 51.37149 | -61.55650 | 35636 ft | 464 kts | 289° |
| 2026-05-05 19:51 | 51.39370 | -61.65319 | 35644 ft | 461 kts | 288° |
| 2026-05-05 19:51 | 51.40470 | -61.70124 | 35878 ft | 461 kts | 288° |
| 2026-05-05 19:52 | 51.41569 | -61.74945 | 35651 ft | 462 kts | 288° |
| 2026-05-05 19:52 | 51.43759 | -61.84561 | 35627 ft | 458 kts | 288° |
| 2026-05-05 19:53 | 51.45945 | -61.94211 | 35636 ft | 460 kts | 288° |
| 2026-05-05 19:53 | 51.48115 | -62.03832 | 35624 ft | 460 kts | 288° |
| 2026-05-05 19:54 | 51.50271 | -62.13448 | 35604 ft | 459 kts | 288° |
| 2026-05-05 19:54 | 51.52422 | -62.23071 | 35604 ft | 460 kts | 287° |
| 2026-05-05 19:55 | 51.54570 | -62.32732 | 35588 ft | 460 kts | 288° |
| 2026-05-05 19:55 | 51.56706 | -62.42381 | 35593 ft | 460 kts | 287° |
| 2026-05-05 19:56 | 51.58817 | -62.51961 | 35581 ft | 460 kts | 287° |
| 2026-05-05 19:56 | 51.60938 | -62.61636 | 35592 ft | 460 kts | 288° |
| 2026-05-05 19:57 | 51.63064 | -62.71380 | 35589 ft | 459 kts | 287° |
| 2026-05-05 19:57 | 51.65179 | -62.81107 | 35574 ft | 459 kts | 287° |
| 2026-05-05 19:58 | 51.67272 | -62.90791 | 35578 ft | 460 kts | 286° |
| 2026-05-05 19:58 | 51.69354 | -63.00469 | 35590 ft | 460 kts | 286° |
| 2026-05-05 19:59 | 51.71436 | -63.10188 | 35572 ft | 459 kts | 286° |
| 2026-05-05 19:59 | 51.73508 | -63.19911 | 35553 ft | 459 kts | 286° |
| 2026-05-05 20:00 | 51.75578 | -63.29668 | 35554 ft | 460 kts | 286° |
| 2026-05-05 20:00 | 51.77634 | -63.39404 | 35554 ft | 460 kts | 286° |
| 2026-05-05 20:01 | 51.79681 | -63.49149 | 35552 ft | 459 kts | 286° |
| 2026-05-05 20:01 | 51.81714 | -63.58868 | 35546 ft | 460 kts | 286° |
| 2026-05-05 20:02 | 51.83748 | -63.68643 | 35542 ft | 461 kts | 285° |
| 2026-05-05 20:02 | 51.85799 | -63.78551 | 35547 ft | 461 kts | 285° |
| 2026-05-05 20:03 | 51.87815 | -63.88343 | 35531 ft | 461 kts | 285° |
| 2026-05-05 20:03 | 51.89830 | -63.98162 | 35527 ft | 461 kts | 285° |
| 2026-05-05 20:04 | 51.91841 | -64.08022 | 35525 ft | 461 kts | 285° |
| 2026-05-05 20:04 | 51.93840 | -64.17872 | 35525 ft | 462 kts | 284° |
| 2026-05-05 20:05 | 51.95829 | -64.27724 | 35524 ft | 462 kts | 285° |
| 2026-05-05 20:05 | 51.97834 | -64.37701 | 35516 ft | 460 kts | 285° |
| 2026-05-05 20:06 | 51.99816 | -64.47616 | 35517 ft | 461 kts | 284° |
| 2026-05-05 20:06 | 52.01786 | -64.57519 | 35512 ft | 461 kts | 284° |
| 2026-05-05 20:07 | 52.03742 | -64.67404 | 35521 ft | 461 kts | 284° |
| 2026-05-05 20:07 | 52.05698 | -64.77342 | 35512 ft | 462 kts | 283° |
| 2026-05-05 20:08 | 52.07637 | -64.87244 | 35514 ft | 461 kts | 284° |
| 2026-05-05 20:08 | 52.09581 | -64.97213 | 35498 ft | 461 kts | 284° |
| 2026-05-05 20:09 | 52.11499 | -65.07110 | 35482 ft | 461 kts | 284° |
| 2026-05-05 20:09 | 52.13409 | -65.17017 | 35501 ft | 461 kts | 283° |
| 2026-05-05 20:10 | 52.15311 | -65.26934 | 35505 ft | 462 kts | 283° |
| 2026-05-05 20:10 | 52.17215 | -65.36906 | 35485 ft | 462 kts | 283° |
| 2026-05-05 20:11 | 52.19111 | -65.46893 | 35476 ft | 462 kts | 283° |
| 2026-05-05 20:11 | 52.20996 | -65.56876 | 35487 ft | 463 kts | 283° |
| 2026-05-05 20:12 | 52.22877 | -65.66894 | 35501 ft | 464 kts | 282° |
| 2026-05-05 20:12 | 52.24765 | -65.76994 | 35487 ft | 464 kts | 282° |
| 2026-05-05 20:13 | 52.26644 | -65.87117 | 35485 ft | 466 kts | 282° |
| 2026-05-05 20:13 | 52.28512 | -65.97218 | 35482 ft | 467 kts | 282° |
| 2026-05-05 20:14 | 52.30378 | -66.07375 | 35477 ft | 466 kts | 282° |
| 2026-05-05 20:14 | 52.32228 | -66.17495 | 35458 ft | 466 kts | 282° |
| 2026-05-05 20:15 | 52.33607 | -66.25075 | 35454 ft | 466 kts | 282° |
| 2026-05-05 20:15 | 52.35447 | -66.35238 | 35456 ft | 467 kts | 282° |
| 2026-05-05 20:16 | 52.37270 | -66.45380 | 35429 ft | 467 kts | 282° |
| 2026-05-05 20:16 | 52.39091 | -66.55540 | 35451 ft | 467 kts | 281° |
| 2026-05-05 20:17 | 52.40907 | -66.65744 | 35437 ft | 467 kts | 280° |
| 2026-05-05 20:17 | 52.42712 | -66.75951 | 35443 ft | 466 kts | 281° |
| 2026-05-05 20:18 | 52.44507 | -66.86142 | 35436 ft | 466 kts | 280° |
| 2026-05-05 20:18 | 52.46289 | -66.96330 | 35451 ft | 466 kts | 280° |
| 2026-05-05 20:19 | 52.48177 | -67.06525 | 35428 ft | 469 kts | 282° |
| 2026-05-05 20:19 | 52.50126 | -67.16731 | 35437 ft | 469 kts | 281° |
| 2026-05-05 20:20 | 52.52061 | -67.26950 | 35430 ft | 470 kts | 281° |
| 2026-05-05 20:20 | 52.53995 | -67.37193 | 35443 ft | 471 kts | 281° |
| 2026-05-05 20:21 | 52.55922 | -67.47472 | 35445 ft | 472 kts | 281° |
| 2026-05-05 20:21 | 52.57843 | -67.57769 | 35429 ft | 472 kts | 281° |
| 2026-05-05 20:22 | 52.59752 | -67.68066 | 35428 ft | 472 kts | 280° |
| 2026-05-05 20:22 | 52.61660 | -67.78412 | 35431 ft | 472 kts | 281° |
| 2026-05-05 20:23 | 52.63554 | -67.88731 | 35428 ft | 473 kts | 280° |
| 2026-05-05 20:23 | 52.65443 | -67.99094 | 35427 ft | 474 kts | 280° |
| 2026-05-05 20:24 | 52.67331 | -68.09502 | 35414 ft | 475 kts | 280° |
| 2026-05-05 20:24 | 52.69211 | -68.19928 | 35418 ft | 478 kts | 280° |
| 2026-05-05 20:25 | 52.71091 | -68.30419 | 35424 ft | 478 kts | 280° |
| 2026-05-05 20:25 | 52.72976 | -68.40990 | 35402 ft | 479 kts | 280° |
| 2026-05-05 20:26 | 52.74840 | -68.51513 | 35397 ft | 480 kts | 280° |
| 2026-05-05 20:26 | 52.76702 | -68.62080 | 35409 ft | 483 kts | 280° |
| 2026-05-05 20:27 | 52.78564 | -68.72713 | 35413 ft | 481 kts | 280° |
| 2026-05-05 20:27 | 52.80419 | -68.83371 | 35399 ft | 484 kts | 279° |
| 2026-05-05 20:28 | 52.82268 | -68.94049 | 35401 ft | 484 kts | 279° |
| 2026-05-05 20:28 | 52.84107 | -69.04749 | 35395 ft | 486 kts | 280° |
| 2026-05-05 20:29 | 52.85952 | -69.15529 | 35406 ft | 489 kts | 279° |
| 2026-05-05 20:29 | 52.87784 | -69.26318 | 35393 ft | 488 kts | 280° |
| 2026-05-05 20:30 | 52.89617 | -69.37175 | 35401 ft | 489 kts | 279° |
| 2026-05-05 20:30 | 52.91448 | -69.48085 | 35393 ft | 491 kts | 280° |
| 2026-05-05 20:31 | 52.93260 | -69.58952 | 35386 ft | 493 kts | 280° |
| 2026-05-05 20:31 | 52.95071 | -69.69881 | 35395 ft | 494 kts | 279° |
| 2026-05-05 20:32 | 52.96885 | -69.80901 | 35365 ft | 497 kts | 279° |
| 2026-05-05 20:32 | 52.98692 | -69.91947 | 35391 ft | 498 kts | 279° |
| 2026-05-05 20:33 | 53.00545 | -70.03050 | 35372 ft | 499 kts | 281° |
| 2026-05-05 20:33 | 53.02535 | -70.14118 | 35363 ft | 501 kts | 281° |
| 2026-05-05 20:34 | 53.04522 | -70.25262 | 35371 ft | 503 kts | 282° |
| 2026-05-05 20:34 | 53.06513 | -70.36504 | 35383 ft | 505 kts | 282° |
| 2026-05-05 20:35 | 53.08472 | -70.47634 | 35358 ft | 507 kts | 282° |
| 2026-05-05 20:35 | 53.10444 | -70.58901 | 35344 ft | 508 kts | 282° |
| 2026-05-05 20:36 | 53.12417 | -70.70255 | 35342 ft | 510 kts | 281° |
| 2026-05-05 20:36 | 53.14372 | -70.81573 | 35349 ft | 511 kts | 282° |
| 2026-05-05 20:37 | 53.16326 | -70.92960 | 35338 ft | 513 kts | 282° |
| 2026-05-05 20:37 | 53.18275 | -71.04388 | 35336 ft | 514 kts | 282° |
| 2026-05-05 20:38 | 53.20208 | -71.15804 | 35343 ft | 515 kts | 282° |
| 2026-05-05 20:38 | 53.22130 | -71.27222 | 35346 ft | 515 kts | 282° |
| 2026-05-05 20:39 | 53.24056 | -71.38740 | 35359 ft | 516 kts | 282° |
| 2026-05-05 20:39 | 53.25979 | -71.50317 | 35353 ft | 517 kts | 282° |
| 2026-05-05 20:40 | 53.27870 | -71.61786 | 35352 ft | 518 kts | 282° |
| 2026-05-05 20:40 | 53.29765 | -71.73348 | 35357 ft | 518 kts | 282° |
| 2026-05-05 20:41 | 53.31652 | -71.84952 | 35345 ft | 518 kts | 282° |
| 2026-05-05 20:41 | 53.33531 | -71.96581 | 35345 ft | 519 kts | 282° |
| 2026-05-05 20:42 | 53.35400 | -72.08218 | 35335 ft | 520 kts | 282° |
| 2026-05-05 20:42 | 53.37258 | -72.19878 | 35328 ft | 520 kts | 282° |
| 2026-05-05 20:43 | 53.39104 | -72.31541 | 35333 ft | 521 kts | 282° |
| 2026-05-05 20:43 | 53.40941 | -72.43231 | 35333 ft | 522 kts | 282° |
| 2026-05-05 20:44 | 53.42767 | -72.54938 | 35343 ft | 522 kts | 282° |
| 2026-05-05 20:44 | 53.44587 | -72.66679 | 35352 ft | 522 kts | 281° |
| 2026-05-05 20:45 | 53.47314 | -72.84441 | 35350 ft | 523 kts | 282° |
| 2026-05-05 20:45 | 53.49107 | -72.96227 | 35357 ft | 523 kts | 282° |
| 2026-05-05 20:46 | 53.50884 | -73.07994 | 35363 ft | 523 kts | 282° |
| 2026-05-05 20:46 | 53.52652 | -73.19788 | 35362 ft | 524 kts | 282° |
| 2026-05-05 20:47 | 53.54429 | -73.31731 | 35360 ft | 525 kts | 282° |
| 2026-05-05 20:47 | 53.56191 | -73.43658 | 35366 ft | 525 kts | 282° |
| 2026-05-05 20:48 | 53.57931 | -73.55531 | 35371 ft | 526 kts | 282° |
| 2026-05-05 20:48 | 53.59665 | -73.67454 | 35377 ft | 526 kts | 281° |
| 2026-05-05 20:49 | 53.61383 | -73.79353 | 35378 ft | 525 kts | 281° |
| 2026-05-05 20:49 | 53.63087 | -73.91250 | 35383 ft | 526 kts | 281° |
| 2026-05-05 20:50 | 53.64791 | -74.03238 | 35388 ft | 526 kts | 281° |
| 2026-05-05 20:50 | 53.66474 | -74.15176 | 35384 ft | 527 kts | 281° |
| 2026-05-05 20:51 | 53.68150 | -74.27148 | 35381 ft | 527 kts | 281° |
| 2026-05-05 20:51 | 53.69814 | -74.39144 | 35371 ft | 529 kts | 281° |
| 2026-05-05 20:52 | 53.71469 | -74.51159 | 35371 ft | 529 kts | 281° |
| 2026-05-05 20:52 | 53.73114 | -74.63205 | 35364 ft | 529 kts | 282° |
| 2026-05-05 20:53 | 53.74744 | -74.75240 | 35364 ft | 529 kts | 281° |
| 2026-05-05 20:53 | 53.76372 | -74.87351 | 35376 ft | 529 kts | 281° |
| 2026-05-05 20:54 | 53.77940 | -74.99430 | 35373 ft | 528 kts | 277° |
| 2026-05-05 20:54 | 53.78798 | -75.11681 | 35376 ft | 530 kts | 275° |
| 2026-05-05 20:55 | 53.79594 | -75.24051 | 35376 ft | 530 kts | 275° |
| 2026-05-05 20:55 | 53.80364 | -75.36369 | 35374 ft | 531 kts | 275° |
| 2026-05-05 20:56 | 53.81128 | -75.48811 | 35376 ft | 531 kts | 274° |
| 2026-05-05 20:56 | 53.81871 | -75.61149 | 35373 ft | 531 kts | 274° |
| 2026-05-05 20:57 | 53.82606 | -75.73544 | 35373 ft | 530 kts | 274° |
| 2026-05-05 20:57 | 53.83327 | -75.85937 | 35372 ft | 531 kts | 274° |
| 2026-05-05 20:58 | 53.84034 | -75.98299 | 35373 ft | 531 kts | 274° |
| 2026-05-05 20:58 | 53.84734 | -76.10785 | 35381 ft | 532 kts | 274° |
| 2026-05-05 20:59 | 53.85418 | -76.23202 | 35391 ft | 533 kts | 274° |
| 2026-05-05 20:59 | 53.86091 | -76.35661 | 35394 ft | 534 kts | 274° |
| 2026-05-05 21:00 | 53.86752 | -76.48148 | 35390 ft | 535 kts | 274° |
| 2026-05-05 21:00 | 53.87403 | -76.60688 | 35392 ft | 535 kts | 274° |
| 2026-05-05 21:01 | 53.88037 | -76.73160 | 35397 ft | 534 kts | 273° |
| 2026-05-05 21:01 | 53.88661 | -76.85694 | 35385 ft | 534 kts | 273° |
| 2026-05-05 21:02 | 53.89267 | -76.98128 | 35372 ft | 535 kts | 273° |
| 2026-05-05 21:02 | 53.89864 | -77.10651 | 35376 ft | 535 kts | 273° |
| 2026-05-05 21:03 | 53.90453 | -77.23273 | 35384 ft | 535 kts | 273° |
| 2026-05-05 21:03 | 53.91023 | -77.35796 | 35388 ft | 536 kts | 273° |
| 2026-05-05 21:04 | 53.91579 | -77.48296 | 35398 ft | 536 kts | 273° |
| 2026-05-05 21:04 | 53.92124 | -77.60815 | 35401 ft | 536 kts | 273° |
| 2026-05-05 21:05 | 53.92659 | -77.73437 | 35398 ft | 536 kts | 272° |
| 2026-05-05 21:05 | 53.93176 | -77.85934 | 35398 ft | 536 kts | 272° |
| 2026-05-05 21:06 | 53.93684 | -77.98534 | 35396 ft | 536 kts | 272° |
| 2026-05-05 21:06 | 53.94175 | -78.11070 | 35385 ft | 537 kts | 272° |
| 2026-05-05 21:07 | 53.94657 | -78.23678 | 35378 ft | 537 kts | 272° |
| 2026-05-05 21:07 | 53.95124 | -78.36268 | 35380 ft | 538 kts | 273° |
| 2026-05-05 21:08 | 53.95582 | -78.48957 | 35390 ft | 539 kts | 273° |
| 2026-05-05 21:08 | 53.96025 | -78.61591 | 35392 ft | 539 kts | 273° |
| 2026-05-05 21:09 | 53.96454 | -78.74223 | 35392 ft | 539 kts | 272° |
| 2026-05-05 21:09 | 53.96872 | -78.86905 | 35388 ft | 539 kts | 272° |
| 2026-05-05 21:10 | 53.97276 | -78.99612 | 35390 ft | 538 kts | 272° |
| 2026-05-05 21:10 | 53.97665 | -79.12231 | 35386 ft | 539 kts | 272° |
| 2026-05-05 21:11 | 53.98041 | -79.24867 | 35382 ft | 540 kts | 272° |
| 2026-05-05 21:11 | 53.98405 | -79.37576 | 35384 ft | 540 kts | 272° |
| 2026-05-05 21:12 | 53.98758 | -79.50362 | 35382 ft | 540 kts | 272° |
| 2026-05-05 21:12 | 53.99088 | -79.62779 | 35382 ft | 539 kts | 272° |
| 2026-05-05 21:13 | 53.99430 | -79.76169 | 35373 ft | 539 kts | 271° |
| 2026-05-05 21:13 | 53.99741 | -79.88946 | 35368 ft | 539 kts | 271° |
| 2026-05-05 21:14 | 54.00061 | -80.01708 | 35368 ft | 540 kts | 273° |
| 2026-05-05 21:14 | 54.00588 | -80.14353 | 35358 ft | 540 kts | 274° |
| 2026-05-05 21:15 | 54.01097 | -80.27101 | 35346 ft | 541 kts | 274° |
| 2026-05-05 21:15 | 54.01590 | -80.39784 | 35345 ft | 541 kts | 274° |
| 2026-05-05 21:16 | 54.02068 | -80.52450 | 35350 ft | 540 kts | 274° |
| 2026-05-05 21:16 | 54.02533 | -80.65136 | 35348 ft | 541 kts | 273° |
| 2026-05-05 21:17 | 54.02988 | -80.77925 | 35349 ft | 541 kts | 273° |
| 2026-05-05 21:17 | 54.03426 | -80.90616 | 35347 ft | 541 kts | 273° |
| 2026-05-05 21:18 | 54.03852 | -81.03317 | 35348 ft | 542 kts | 273° |
| 2026-05-05 21:18 | 54.04267 | -81.16116 | 35345 ft | 541 kts | 273° |
| 2026-05-05 21:19 | 54.04666 | -81.28825 | 35347 ft | 541 kts | 273° |
| 2026-05-05 21:19 | 54.05051 | -81.41550 | 35340 ft | 541 kts | 273° |
| 2026-05-05 21:20 | 54.05423 | -81.54285 | 35332 ft | 542 kts | 273° |
| 2026-05-05 21:20 | 54.05783 | -81.67048 | 35332 ft | 541 kts | 272° |
| 2026-05-05 21:21 | 54.06129 | -81.79791 | 35334 ft | 541 kts | 272° |
| 2026-05-05 21:21 | 54.06460 | -81.92510 | 35336 ft | 541 kts | 272° |
| 2026-05-05 21:22 | 54.06778 | -82.05233 | 35333 ft | 541 kts | 272° |
| 2026-05-05 21:22 | 54.07085 | -82.18060 | 35339 ft | 541 kts | 272° |
| 2026-05-05 21:23 | 54.07375 | -82.30756 | 35347 ft | 541 kts | 272° |
| 2026-05-05 21:23 | 54.07655 | -82.43605 | 35349 ft | 542 kts | 272° |
| 2026-05-05 21:24 | 54.07920 | -82.56342 | 35356 ft | 543 kts | 272° |
| 2026-05-05 21:24 | 54.08172 | -82.69117 | 35351 ft | 542 kts | 272° |
| 2026-05-05 21:25 | 54.08409 | -82.81868 | 35339 ft | 541 kts | 272° |
| 2026-05-05 21:25 | 54.08633 | -82.94604 | 35337 ft | 541 kts | 272° |
| 2026-05-05 21:26 | 54.08844 | -83.07416 | 35332 ft | 541 kts | 272° |
| 2026-05-05 21:26 | 54.09042 | -83.20236 | 35354 ft | 541 kts | 272° |
| 2026-05-05 21:27 | 54.09226 | -83.33012 | 35355 ft | 541 kts | 272° |
| 2026-05-05 21:27 | 54.09396 | -83.45818 | 35351 ft | 541 kts | 272° |
| 2026-05-05 21:28 | 54.09552 | -83.58580 | 35353 ft | 541 kts | 272° |
| 2026-05-05 21:28 | 54.09695 | -83.71344 | 35358 ft | 541 kts | 271° |
| 2026-05-05 21:29 | 54.09824 | -83.84072 | 35363 ft | 540 kts | 271° |
| 2026-05-05 21:29 | 54.09941 | -83.96877 | 35347 ft | 540 kts | 271° |
| 2026-05-05 21:30 | 54.10043 | -84.09618 | 35364 ft | 540 kts | 271° |
| 2026-05-05 21:30 | 54.10131 | -84.22347 | 35372 ft | 540 kts | 271° |
| 2026-05-05 21:31 | 54.10207 | -84.35088 | 35378 ft | 541 kts | 271° |
| 2026-05-05 21:31 | 54.10269 | -84.47838 | 35383 ft | 540 kts | 271° |
| 2026-05-05 21:32 | 54.10317 | -84.60572 | 35379 ft | 540 kts | 271° |
| 2026-05-05 21:32 | 54.10352 | -84.73397 | 35390 ft | 540 kts | 271° |
| 2026-05-05 21:33 | 54.10373 | -84.86108 | 35409 ft | 540 kts | 271° |
| 2026-05-05 21:33 | 54.10381 | -84.98872 | 35412 ft | 540 kts | 271° |
| 2026-05-05 21:34 | 54.10376 | -85.11681 | 35421 ft | 540 kts | 271° |
| 2026-05-05 21:34 | 54.10357 | -85.24410 | 35424 ft | 540 kts | 271° |
| 2026-05-05 21:35 | 54.10324 | -85.37203 | 35433 ft | 540 kts | 271° |
| 2026-05-05 21:35 | 54.10278 | -85.49944 | 35435 ft | 540 kts | 271° |
| 2026-05-05 21:36 | 54.10219 | -85.62656 | 35443 ft | 540 kts | 271° |
| 2026-05-05 21:36 | 54.10145 | -85.75429 | 35446 ft | 540 kts | 270° |
| 2026-05-05 21:37 | 54.10059 | -85.88177 | 35456 ft | 540 kts | 270° |
| 2026-05-05 21:37 | 54.09959 | -86.00894 | 35462 ft | 540 kts | 270° |
| 2026-05-05 21:38 | 54.09846 | -86.13617 | 35448 ft | 539 kts | 270° |
| 2026-05-05 21:38 | 54.09720 | -86.26337 | 35465 ft | 538 kts | 270° |
| 2026-05-05 21:39 | 54.09580 | -86.39058 | 35479 ft | 539 kts | 270° |
| 2026-05-05 21:39 | 54.09427 | -86.51749 | 35493 ft | 539 kts | 270° |
| 2026-05-05 21:40 | 54.09260 | -86.64473 | 35498 ft | 539 kts | 270° |
| 2026-05-05 21:40 | 54.09078 | -86.77308 | 35491 ft | 538 kts | 269° |
| 2026-05-05 21:41 | 54.08886 | -86.89957 | 35496 ft | 537 kts | 269° |
| 2026-05-05 21:41 | 54.08676 | -87.02756 | 35496 ft | 538 kts | 269° |
| 2026-05-05 21:42 | 54.08455 | -87.15540 | 35506 ft | 538 kts | 269° |
| 2026-05-05 21:42 | 54.08222 | -87.28200 | 35514 ft | 538 kts | 269° |
| 2026-05-05 21:43 | 54.07975 | -87.40917 | 35524 ft | 538 kts | 269° |
| 2026-05-05 21:43 | 54.07714 | -87.53645 | 35542 ft | 537 kts | 269° |
| 2026-05-05 21:44 | 54.07440 | -87.66333 | 35550 ft | 536 kts | 269° |
| 2026-05-05 21:44 | 54.07153 | -87.79002 | 35553 ft | 537 kts | 268° |
| 2026-05-05 21:45 | 54.06852 | -87.91727 | 35556 ft | 537 kts | 268° |
| 2026-05-05 21:45 | 54.06539 | -88.04350 | 35559 ft | 536 kts | 268° |
| 2026-05-05 21:46 | 54.06213 | -88.17007 | 35566 ft | 536 kts | 268° |
| 2026-05-05 21:46 | 54.05873 | -88.29665 | 35571 ft | 536 kts | 268° |
| 2026-05-05 21:47 | 54.05520 | -88.42320 | 35581 ft | 536 kts | 268° |
| 2026-05-05 21:47 | 54.05155 | -88.54924 | 35590 ft | 536 kts | 268° |
| 2026-05-05 21:48 | 54.04774 | -88.67595 | 35593 ft | 536 kts | 268° |
| 2026-05-05 21:48 | 54.04382 | -88.80238 | 35611 ft | 535 kts | 268° |
| 2026-05-05 21:49 | 54.03974 | -88.92927 | 35622 ft | 535 kts | 268° |
| 2026-05-05 21:49 | 54.03554 | -89.05586 | 35622 ft | 536 kts | 268° |
| 2026-05-05 21:50 | 54.03121 | -89.18243 | 35616 ft | 536 kts | 268° |
| 2026-05-05 21:50 | 54.02672 | -89.30958 | 35613 ft | 536 kts | 268° |
| 2026-05-05 21:51 | 54.02213 | -89.43582 | 35629 ft | 536 kts | 268° |
| 2026-05-05 21:51 | 54.01741 | -89.56200 | 35635 ft | 536 kts | 268° |
| 2026-05-05 21:52 | 54.01006 | -89.75191 | 35643 ft | 537 kts | 267° |
| 2026-05-05 21:53 | 54.00499 | -89.87855 | 35662 ft | 538 kts | 266° |
| 2026-05-05 21:53 | 53.99893 | -90.00427 | 35656 ft | 537 kts | 261° |
| 2026-05-05 21:54 | 53.99198 | -90.13036 | 35680 ft | 538 kts | 266° |
| 2026-05-05 21:54 | 53.98513 | -90.25703 | 35680 ft | 538 kts | 265° |
| 2026-05-05 21:55 | 53.97770 | -90.38302 | 35687 ft | 537 kts | 265° |
| 2026-05-05 21:55 | 53.97010 | -90.50919 | 35685 ft | 538 kts | 265° |
| 2026-05-05 21:56 | 53.96235 | -90.63541 | 35692 ft | 539 kts | 265° |
| 2026-05-05 21:56 | 53.95447 | -90.76157 | 35706 ft | 538 kts | 264° |
| 2026-05-05 21:57 | 53.94643 | -90.88798 | 35715 ft | 538 kts | 264° |